Česky Dansk Deutsch English Español Suomi Français Magyar Italiano Nederlands norsk Polski Português svenska Türkçe

 

Het Weer

Addis Ababa (Ethiopia)

15:00, 21 augustus 2016 (GMT)

NWNNE
WE
SWSSE
Home            
Addis Ababa Harar Meda Awash Debremarcos Awassa Combolcha Jimma Ghinnir / Ginir Masslo / Meslo Bahar Dar Dire Dawa Arba Minch Gore Gondar Neghelli Baco / Bako Jiggiga Assosa / Asosa Makale Djibouti Djibouti \ Ambouli Axum Damazine

Om een weerknop op uw website of weblog te plaatsen, copieer onderstaande code en plak die in uw pagina. In het eerste vakje staat HTML-code, in het tweede vakje UBB-code.


Add to Google

Details

Wind speed:2 bf, 4 kn, 2.1 m/s, 4.6 miles/h, 7.4 km/h
Wind direction:N, 350°
Visibility:Greater than 10000 m, 10 km, 32800 ft, 6.2 miles
Clouds:Ein wenig bewölkt at 2300 ft, 701 m
Durchbrochene Bewölkung at 2500 ft, 762 m
Aufgelockert bewölkt at 7000 ft, 2134 m
Temperature:17°C, 63°F
Dew-point:11°C, 52°F
Atmospheric pressure:1026 hPa, 769.6 mmHg, 30.30 inHg, 1.013 atm
Relative humidity:67.7 %
METAR:HAAB 211500Z 35004KT 9999 FEW023 CB BKN025 SCT070 17/11 Q1026

Snelkoppelingen

Actuele weersinformatie van de hele wereld. Voeg locaties toe met het plus (+) symbool. Deze snelkoppelingen kunnen worden toegevoegd aan Google.

Lid van de Technetium groep

website free tracking
StatCounter NetStat W3C Validator

15-10-2019 06:37:07
astro.technetium.be money.technetium.be phote.technetium.be tafeltennistafel.technetium.be www.ligfiets.net